createdAt,value
2019-05-26T00:01:33.761Z,13.70
2019-05-26T00:04:04.399Z,13.70
2019-05-26T00:06:34.102Z,13.60
2019-05-26T00:09:05.045Z,13.50
2019-05-26T00:11:34.799Z,13.50
2019-05-26T00:14:04.583Z,13.50
2019-05-26T00:16:34.061Z,13.50
2019-05-26T00:19:04.634Z,13.40
2019-05-26T00:21:34.622Z,13.40
2019-05-26T00:24:04.154Z,13.40
2019-05-26T00:26:33.913Z,13.40
2019-05-26T00:29:03.526Z,13.40
2019-05-26T00:31:33.305Z,13.40
2019-05-26T00:34:02.993Z,13.40
2019-05-26T00:36:32.819Z,13.50
2019-05-26T00:39:02.610Z,13.40
2019-05-26T00:41:32.342Z,13.40
2019-05-26T00:44:02.137Z,13.40
2019-05-26T00:46:35.020Z,13.30
2019-05-26T00:49:04.749Z,13.20
2019-05-26T00:51:34.319Z,13.10
2019-05-26T00:54:03.930Z,13.00
2019-05-26T00:56:33.409Z,12.80
2019-05-26T00:59:03.158Z,12.80
2019-05-26T01:01:32.840Z,12.70
2019-05-26T01:04:02.484Z,12.60
2019-05-26T01:06:31.949Z,12.70
2019-05-26T01:09:01.433Z,12.50
2019-05-26T01:11:32.347Z,12.50
2019-05-26T01:14:02.020Z,12.60
2019-05-26T01:16:31.773Z,12.80
2019-05-26T01:19:01.486Z,12.80
2019-05-26T01:21:31.061Z,12.70
2019-05-26T01:24:00.551Z,12.70
2019-05-26T01:26:30.413Z,12.70
2019-05-26T01:29:00.099Z,12.70
2019-05-26T01:31:29.808Z,12.70
2019-05-26T01:33:59.357Z,12.80
2019-05-26T01:36:29.094Z,12.80
2019-05-26T01:38:58.503Z,12.80
2019-05-26T01:41:28.111Z,12.70
2019-05-26T01:43:58.234Z,12.70
2019-05-26T01:46:27.741Z,12.70
2019-05-26T01:48:57.546Z,12.70
2019-05-26T01:51:27.306Z,12.70
2019-05-26T01:53:56.928Z,12.70
2019-05-26T01:56:26.595Z,12.70
2019-05-26T01:58:56.630Z,12.70
2019-05-26T02:01:26.348Z,12.60
2019-05-26T02:03:56.072Z,12.60
2019-05-26T02:06:25.763Z,12.60
2019-05-26T02:08:55.414Z,12.50
2019-05-26T02:11:24.984Z,12.50
2019-05-26T02:13:54.633Z,12.50
2019-05-26T02:16:24.095Z,12.50
2019-05-26T02:18:53.910Z,12.40
2019-05-26T02:21:23.516Z,12.40
2019-05-26T02:23:52.953Z,12.40
2019-05-26T02:26:22.806Z,12.40
2019-05-26T02:28:52.354Z,12.40
2019-05-26T02:31:22.003Z,10.80
2019-05-26T02:33:51.768Z,12.40
2019-05-26T02:36:21.348Z,12.30
2019-05-26T02:39:02.247Z,12.30
2019-05-26T02:41:23.220Z,12.30
2019-05-26T02:43:52.796Z,12.20
2019-05-26T02:46:22.525Z,12.20
2019-05-26T02:48:53.205Z,12.20
2019-05-26T02:51:22.990Z,12.20
2019-05-26T02:53:52.705Z,12.30
2019-05-26T02:56:22.224Z,12.30
2019-05-26T02:58:51.864Z,12.20
2019-05-26T03:01:21.422Z,12.00
2019-05-26T03:03:51.773Z,12.00
2019-05-26T03:06:22.454Z,12.00
2019-05-26T03:08:53.239Z,12.00
2019-05-26T03:11:22.923Z,11.90
2019-05-26T03:13:52.583Z,11.90
2019-05-26T03:16:22.502Z,11.90
2019-05-26T03:18:52.899Z,11.90
2019-05-26T03:21:22.397Z,11.90
2019-05-26T03:23:53.452Z,11.90
2019-05-26T03:26:23.231Z,12.00
2019-05-26T03:28:52.808Z,12.00
2019-05-26T03:31:22.747Z,12.10
2019-05-26T03:33:52.314Z,12.10
2019-05-26T03:36:22.158Z,12.20
2019-05-26T03:38:51.765Z,12.20
2019-05-26T03:41:21.595Z,12.20
2019-05-26T03:43:51.234Z,12.20
2019-05-26T03:46:21.061Z,12.20
2019-05-26T03:48:50.872Z,12.20
2019-05-26T03:51:21.854Z,12.20
2019-05-26T03:53:51.516Z,12.20
2019-05-26T03:56:21.203Z,12.30
2019-05-26T03:58:50.850Z,12.30
2019-05-26T04:01:20.941Z,12.30
2019-05-26T04:03:50.749Z,12.30
2019-05-26T04:06:20.778Z,12.30
2019-05-26T04:08:50.914Z,12.30
2019-05-26T04:11:20.416Z,12.40
2019-05-26T04:13:50.313Z,12.40
2019-05-26T04:16:19.950Z,12.40
2019-05-26T04:18:49.792Z,12.50
2019-05-26T04:21:19.379Z,12.60
2019-05-26T04:23:48.923Z,12.60
2019-05-26T04:26:18.567Z,12.50
2019-05-26T04:28:48.156Z,12.50
2019-05-26T04:31:17.962Z,12.50
2019-05-26T04:33:47.768Z,12.50
2019-05-26T04:36:17.591Z,12.50
2019-05-26T04:38:47.329Z,12.40
2019-05-26T04:41:22.875Z,12.50
2019-05-26T04:43:53.540Z,12.60
2019-05-26T04:46:23.119Z,12.70
2019-05-26T04:48:52.895Z,12.60
2019-05-26T04:51:22.603Z,12.70
2019-05-26T04:53:54.734Z,12.80
2019-05-26T04:56:24.379Z,12.90
2019-05-26T04:58:54.018Z,13.00
2019-05-26T05:01:23.882Z,13.10
2019-05-26T05:03:53.439Z,13.20
2019-05-26T05:06:22.931Z,13.30
2019-05-26T05:08:52.528Z,13.30
2019-05-26T05:11:22.089Z,13.30
2019-05-26T05:13:52.145Z,13.40
2019-05-26T05:16:21.593Z,13.50
2019-05-26T05:18:51.264Z,13.40
2019-05-26T05:21:20.741Z,13.40
2019-05-26T05:23:50.278Z,13.40
2019-05-26T05:26:20.125Z,13.50
2019-05-26T05:28:49.817Z,13.60
2019-05-26T05:31:19.409Z,13.70
2019-05-26T05:33:48.814Z,13.70
2019-05-26T05:36:18.755Z,13.80
2019-05-26T05:38:48.433Z,13.90
2019-05-26T05:41:17.987Z,14.10
2019-05-26T05:43:47.641Z,14.30
2019-05-26T05:46:17.150Z,14.40
2019-05-26T05:48:46.747Z,14.50
2019-05-26T05:51:16.370Z,14.50
2019-05-26T05:53:46.055Z,14.50
2019-05-26T05:56:15.700Z,14.50
2019-05-26T05:58:45.372Z,14.50
2019-05-26T06:01:15.111Z,14.50
2019-05-26T06:03:44.990Z,14.40
2019-05-26T06:06:14.708Z,14.50
2019-05-26T06:08:44.444Z,14.50
2019-05-26T06:11:16.910Z,14.70
2019-05-26T06:13:49.848Z,14.90
2019-05-26T06:16:19.716Z,15.10
2019-05-26T06:18:49.540Z,15.00
2019-05-26T06:21:19.132Z,15.00
2019-05-26T06:23:49.742Z,15.20
2019-05-26T06:26:19.174Z,15.40
2019-05-26T06:28:52.144Z,15.60
2019-05-26T06:31:20.011Z,15.50
2019-05-26T06:33:49.734Z,15.40
2019-05-26T06:36:19.456Z,15.20
2019-05-26T06:38:48.940Z,15.20
2019-05-26T06:41:32.253Z,15.40
2019-05-26T06:43:50.495Z,15.70
2019-05-26T06:46:19.967Z,15.90
2019-05-26T06:48:49.374Z,15.90
2019-05-26T06:51:18.983Z,15.90
2019-05-26T06:53:48.638Z,15.80
2019-05-26T06:56:18.228Z,15.60
2019-05-26T06:58:48.119Z,15.60
2019-05-26T07:01:17.388Z,15.80
2019-05-26T07:03:47.162Z,15.80
2019-05-26T07:06:17.805Z,15.90
2019-05-26T07:08:47.357Z,15.80
2019-05-26T07:11:16.964Z,15.90
2019-05-26T07:13:46.666Z,16.10
2019-05-26T07:16:16.084Z,16.20
2019-05-26T07:18:45.802Z,16.30
2019-05-26T07:21:15.514Z,16.70
2019-05-26T07:23:45.274Z,16.70
2019-05-26T07:26:14.888Z,16.70
2019-05-26T07:28:44.541Z,17.00
2019-05-26T07:31:14.511Z,17.10
2019-05-26T07:33:45.706Z,17.40
2019-05-26T07:36:15.411Z,17.70
2019-05-26T07:38:45.042Z,17.70
2019-05-26T07:41:14.829Z,17.80
2019-05-26T07:43:44.436Z,17.80
2019-05-26T07:46:14.070Z,18.00
2019-05-26T07:48:44.221Z,18.50
2019-05-26T07:51:14.225Z,18.30
2019-05-26T07:53:43.991Z,18.50
2019-05-26T07:56:13.688Z,18.50
2019-05-26T07:58:43.301Z,19.00
2019-05-26T08:01:13.135Z,19.10
2019-05-26T08:03:42.789Z,19.40
2019-05-26T08:06:12.757Z,19.10
2019-05-26T08:08:42.473Z,19.20
2019-05-26T08:11:12.089Z,19.20
2019-05-26T08:13:41.993Z,20.20
2019-05-26T08:16:11.957Z,20.80
2019-05-26T08:18:41.930Z,20.30
2019-05-26T08:21:11.580Z,19.60
2019-05-26T08:23:41.487Z,19.70
2019-05-26T08:26:11.173Z,19.70
2019-05-26T08:28:41.011Z,19.90
2019-05-26T08:31:13.382Z,20.10
2019-05-26T08:33:42.190Z,20.30
2019-05-26T08:36:12.305Z,20.30
2019-05-26T08:38:42.100Z,20.20
2019-05-26T08:41:12.191Z,20.70
2019-05-26T08:43:41.902Z,20.60
2019-05-26T08:46:15.289Z,20.80
2019-05-26T08:48:48.191Z,21.20
2019-05-26T08:51:17.921Z,21.60
2019-05-26T08:53:48.160Z,22.50
2019-05-26T08:56:17.754Z,23.20
2019-05-26T08:58:47.628Z,22.80
2019-05-26T09:01:19.770Z,22.50
2019-05-26T09:03:49.459Z,22.20
2019-05-26T09:06:19.440Z,21.80
2019-05-26T09:08:49.242Z,21.20
2019-05-26T09:11:19.058Z,21.30
2019-05-26T09:13:48.673Z,21.40
2019-05-26T09:16:18.348Z,21.60
2019-05-26T09:18:48.023Z,21.20
2019-05-26T09:21:17.768Z,21.00
2019-05-26T09:23:47.597Z,21.20
2019-05-26T09:26:17.216Z,21.10
2019-05-26T09:28:48.108Z,21.00
2019-05-26T09:31:18.468Z,21.10
2019-05-26T09:33:48.188Z,21.50
2019-05-26T09:36:17.926Z,21.90
2019-05-26T09:38:47.532Z,21.50
2019-05-26T09:41:17.056Z,21.90
2019-05-26T09:43:46.957Z,22.00
2019-05-26T09:46:16.601Z,21.40
2019-05-26T09:48:46.387Z,21.10
2019-05-26T09:51:16.295Z,21.20
2019-05-26T09:53:59.072Z,21.30
2019-05-26T09:56:18.128Z,21.50
2019-05-26T09:58:47.915Z,21.80
2019-05-26T10:01:18.151Z,22.20
2019-05-26T10:03:47.641Z,22.70
2019-05-26T10:06:17.725Z,23.20
2019-05-26T10:08:47.130Z,23.10
2019-05-26T10:11:17.987Z,23.30
2019-05-26T10:13:48.024Z,23.40
2019-05-26T10:16:17.666Z,22.90
2019-05-26T10:18:47.315Z,22.60
2019-05-26T10:21:18.438Z,22.30
2019-05-26T10:23:48.013Z,22.70
2019-05-26T10:26:21.634Z,22.50
2019-05-26T10:28:53.607Z,22.00
2019-05-26T10:31:23.263Z,22.20
2019-05-26T10:33:52.797Z,22.10
2019-05-26T10:36:22.447Z,22.90
2019-05-26T10:38:52.706Z,23.10
2019-05-26T10:41:23.291Z,23.20
2019-05-26T10:43:52.866Z,23.50
2019-05-26T10:46:22.228Z,24.20
2019-05-26T10:48:52.629Z,23.80
2019-05-26T10:51:22.118Z,23.80
2019-05-26T10:53:51.563Z,23.80
2019-05-26T10:56:21.139Z,22.70
2019-05-26T10:58:52.369Z,22.80
2019-05-26T11:01:21.746Z,23.00
2019-05-26T11:03:51.183Z,23.20
2019-05-26T11:06:20.655Z,23.80
2019-05-26T11:08:50.207Z,24.50
2019-05-26T11:11:19.689Z,24.80
2019-05-26T11:14:01.861Z,24.70
2019-05-26T11:16:20.190Z,24.10
2019-05-26T11:18:49.924Z,24.10
2019-05-26T11:21:19.316Z,23.30
2019-05-26T11:23:48.698Z,23.00
2019-05-26T11:26:18.319Z,23.30
2019-05-26T11:28:47.989Z,23.40
2019-05-26T11:31:17.475Z,23.30
2019-05-26T11:33:47.057Z,22.80
2019-05-26T11:36:16.564Z,22.90
2019-05-26T11:38:46.107Z,22.80
2019-05-26T11:41:15.923Z,22.60
2019-05-26T11:43:45.456Z,22.60
2019-05-26T11:46:16.773Z,22.50
2019-05-26T11:48:46.405Z,22.70
2019-05-26T11:51:15.968Z,22.80
2019-05-26T11:53:45.819Z,22.90
2019-05-26T11:56:15.695Z,22.80
2019-05-26T11:58:46.059Z,22.60
2019-05-26T12:01:15.774Z,22.60
2019-05-26T12:03:45.462Z,22.90
2019-05-26T12:06:15.105Z,23.30
2019-05-26T12:08:44.862Z,23.40
2019-05-26T12:11:14.472Z,23.90
2019-05-26T12:13:44.042Z,24.30
2019-05-26T12:16:13.747Z,24.10
2019-05-26T12:18:44.926Z,23.80
2019-05-26T12:21:14.804Z,23.30
2019-05-26T12:23:44.887Z,23.30
2019-05-26T12:26:15.305Z,23.00
2019-05-26T12:28:45.726Z,23.40
2019-05-26T12:31:15.214Z,23.50
2019-05-26T12:33:45.067Z,24.00
2019-05-26T12:38:53.022Z,24.80
2019-05-26T12:48:51.798Z,23.30
2019-05-26T12:51:21.325Z,23.30
2019-05-26T12:53:50.986Z,23.80
2019-05-26T12:56:20.558Z,23.70
2019-05-26T12:58:50.079Z,23.40
2019-05-26T13:01:19.737Z,23.90
2019-05-26T13:03:49.404Z,24.50
2019-05-26T13:06:20.110Z,24.60
2019-05-26T13:08:49.917Z,24.80
2019-05-26T13:11:22.683Z,25.10
2019-05-26T13:13:52.925Z,25.60
2019-05-26T13:16:22.660Z,26.50
2019-05-26T13:18:52.409Z,25.80
2019-05-26T13:21:23.922Z,24.70
2019-05-26T13:23:53.135Z,24.50
2019-05-26T13:26:22.782Z,24.80
2019-05-26T13:28:52.386Z,25.70
2019-05-26T13:31:21.910Z,24.60
2019-05-26T13:33:52.527Z,24.20
2019-05-26T13:36:22.121Z,24.20
2019-05-26T13:38:51.770Z,23.80
2019-05-26T13:41:21.405Z,24.50
2019-05-26T13:43:52.175Z,25.40
2019-05-26T13:46:21.721Z,26.00
2019-05-26T13:48:51.213Z,26.70
2019-05-26T13:51:22.122Z,26.00
2019-05-26T13:53:51.594Z,25.70
2019-05-26T13:56:21.107Z,26.00
2019-05-26T13:58:50.621Z,25.90
2019-05-26T14:01:20.542Z,25.30
2019-05-26T14:03:50.135Z,24.40
2019-05-26T14:06:19.592Z,24.10
2019-05-26T14:08:50.106Z,23.80
2019-05-26T14:11:19.667Z,24.20
2019-05-26T14:13:49.310Z,24.70
2019-05-26T14:16:19.533Z,24.70
2019-05-26T14:18:49.024Z,24.50
2019-05-26T14:21:18.652Z,25.20
2019-05-26T14:23:48.216Z,25.60
2019-05-26T14:26:17.747Z,25.70
2019-05-26T14:28:47.504Z,25.40
2019-05-26T14:31:17.108Z,25.10
2019-05-26T14:33:57.041Z,25.50
2019-05-26T14:36:26.734Z,25.50
2019-05-26T14:38:56.859Z,25.50
2019-05-26T14:41:26.915Z,25.30
2019-05-26T14:43:56.442Z,25.70
2019-05-26T14:46:26.346Z,27.10
2019-05-26T14:48:56.059Z,24.40
2019-05-26T14:51:25.845Z,24.30
2019-05-26T14:53:55.800Z,24.30
2019-05-26T14:56:25.430Z,24.20
2019-05-26T14:58:55.114Z,24.30
2019-05-26T15:01:24.780Z,24.80
2019-05-26T15:03:54.701Z,25.50
2019-05-26T15:06:24.351Z,26.10
2019-05-26T15:08:53.958Z,26.20
2019-05-26T15:11:23.688Z,25.90
2019-05-26T15:13:53.514Z,25.70
2019-05-26T15:16:23.554Z,25.50
2019-05-26T15:18:53.691Z,25.00
2019-05-26T15:21:23.351Z,25.00
2019-05-26T15:23:53.075Z,25.50
2019-05-26T15:26:24.105Z,25.30
2019-05-26T15:28:53.917Z,25.00
2019-05-26T15:31:23.863Z,24.90
2019-05-26T15:33:53.577Z,24.90
2019-05-26T15:36:23.361Z,25.00
2019-05-26T15:38:53.238Z,25.00
2019-05-26T15:41:24.374Z,25.30
2019-05-26T15:43:54.513Z,25.60
2019-05-26T15:46:25.713Z,25.90
2019-05-26T15:48:57.163Z,25.80
2019-05-26T15:51:27.085Z,25.20
2019-05-26T15:53:56.730Z,24.50
2019-05-26T15:56:26.781Z,24.10
2019-05-26T15:58:58.117Z,23.90
2019-05-26T16:01:29.366Z,23.90
2019-05-26T16:03:59.293Z,23.70
2019-05-26T16:06:28.992Z,23.50
2019-05-26T16:08:58.692Z,23.40
2019-05-26T16:11:28.639Z,23.50
2019-05-26T16:13:58.634Z,23.70
2019-05-26T16:16:40.689Z,23.90
2019-05-26T16:19:00.453Z,24.00
2019-05-26T16:21:29.902Z,23.60
2019-05-26T16:23:59.631Z,23.30
2019-05-26T16:26:29.362Z,23.00
2019-05-26T16:28:59.249Z,22.90
2019-05-26T16:31:28.970Z,22.70
2019-05-26T16:33:59.829Z,22.60
2019-05-26T16:36:29.378Z,22.50
2019-05-26T16:38:59.063Z,22.50
2019-05-26T16:41:28.666Z,22.60
2019-05-26T16:43:58.270Z,22.50
2019-05-26T16:46:27.704Z,22.50
2019-05-26T16:48:57.508Z,22.50
2019-05-26T16:51:27.390Z,22.40
2019-05-26T16:53:56.880Z,22.50
2019-05-26T16:56:26.818Z,22.60
2019-05-26T16:58:56.731Z,22.70
2019-05-26T17:01:26.341Z,22.70
2019-05-26T17:03:55.898Z,22.60
2019-05-26T17:06:25.415Z,22.50
2019-05-26T17:08:55.017Z,22.40
2019-05-26T17:11:24.857Z,22.40
2019-05-26T17:13:54.430Z,22.50
2019-05-26T17:16:24.489Z,22.50
2019-05-26T17:18:54.469Z,22.40
2019-05-26T17:21:25.272Z,22.50
2019-05-26T17:23:55.825Z,22.50
2019-05-26T17:26:25.491Z,22.70
2019-05-26T17:28:55.666Z,22.70
2019-05-26T17:31:25.386Z,22.60
2019-05-26T17:33:55.231Z,22.60
2019-05-26T17:36:25.138Z,22.50
2019-05-26T17:38:55.050Z,22.50
2019-05-26T17:41:24.840Z,22.50
2019-05-26T17:43:54.468Z,22.40
2019-05-26T17:46:24.104Z,22.30
2019-05-26T17:48:53.708Z,22.30
2019-05-26T17:51:23.378Z,22.20
2019-05-26T17:53:53.537Z,22.20
2019-05-26T17:56:23.560Z,22.20
2019-05-26T17:58:53.467Z,22.10
2019-05-26T18:01:23.079Z,22.10
2019-05-26T18:03:52.983Z,22.10
2019-05-26T18:06:22.654Z,21.90
2019-05-26T18:08:52.609Z,21.80
2019-05-26T18:11:23.348Z,21.80
2019-05-26T18:13:53.539Z,21.70
2019-05-26T18:16:23.077Z,21.60
2019-05-26T18:18:52.808Z,21.50
2019-05-26T18:21:22.363Z,21.40
2019-05-26T18:23:51.896Z,21.40
2019-05-26T18:26:21.411Z,21.40
2019-05-26T18:28:51.109Z,21.30
2019-05-26T18:31:20.789Z,21.30
2019-05-26T18:33:50.327Z,21.20
2019-05-26T18:36:19.987Z,21.20
2019-05-26T18:38:49.819Z,21.20
2019-05-26T18:41:19.660Z,21.10
2019-05-26T18:43:49.483Z,21.10
2019-05-26T18:46:20.306Z,21.10
2019-05-26T18:48:50.031Z,21.00
2019-05-26T18:51:19.667Z,21.00
2019-05-26T18:53:49.816Z,20.90
2019-05-26T18:56:20.581Z,20.80
2019-05-26T18:58:50.255Z,20.70
2019-05-26T19:01:19.737Z,20.70
2019-05-26T19:03:49.705Z,20.60
2019-05-26T19:06:19.619Z,20.60
2019-05-26T19:08:49.435Z,20.60
2019-05-26T19:11:19.083Z,20.60
2019-05-26T19:13:48.625Z,20.60
2019-05-26T19:16:18.283Z,20.50
2019-05-26T19:18:49.221Z,20.40
2019-05-26T19:21:18.980Z,20.40
2019-05-26T19:23:48.489Z,20.40
2019-05-26T19:26:18.227Z,20.40
2019-05-26T19:28:47.904Z,20.40
2019-05-26T19:31:18.771Z,20.40
2019-05-26T19:33:48.395Z,20.40
2019-05-26T19:36:18.131Z,20.30
2019-05-26T19:38:47.691Z,20.30
2019-05-26T19:41:17.379Z,20.20
2019-05-26T19:43:47.087Z,20.10
2019-05-26T19:46:16.735Z,20.00
2019-05-26T19:48:46.428Z,19.90
2019-05-26T19:51:16.153Z,19.80
2019-05-26T19:53:46.019Z,19.90
2019-05-26T19:56:15.661Z,17.70
2019-05-26T19:58:45.366Z,19.90
2019-05-26T20:01:15.050Z,19.80
2019-05-26T20:03:44.609Z,19.70
2019-05-26T20:06:14.046Z,19.70
2019-05-26T20:08:43.696Z,19.60
2019-05-26T20:11:14.438Z,19.60
2019-05-26T20:13:44.255Z,19.50
2019-05-26T20:16:13.886Z,19.40
2019-05-26T20:18:43.671Z,19.40
2019-05-26T20:21:13.292Z,19.40
2019-05-26T20:23:42.845Z,19.30
2019-05-26T20:26:15.988Z,19.10
2019-05-26T20:28:47.100Z,19.00
2019-05-26T20:31:16.946Z,18.80
2019-05-26T20:33:46.538Z,18.80
2019-05-26T20:36:16.398Z,18.70
2019-05-26T20:38:46.197Z,18.70
2019-05-26T20:41:17.332Z,18.70
2019-05-26T20:43:47.008Z,18.60
2019-05-26T20:46:16.739Z,18.60
2019-05-26T20:48:46.469Z,18.70
2019-05-26T20:51:16.313Z,18.70
2019-05-26T20:53:45.985Z,18.70
2019-05-26T20:56:15.640Z,18.70
2019-05-26T20:58:45.668Z,18.60
2019-05-26T21:01:15.341Z,18.50
2019-05-26T21:03:44.924Z,18.50
2019-05-26T21:06:14.715Z,18.40
2019-05-26T21:08:44.262Z,18.40
2019-05-26T21:11:14.243Z,18.40
2019-05-26T21:13:43.926Z,18.30
2019-05-26T21:16:13.473Z,18.30
2019-05-26T21:18:43.148Z,18.30
2019-05-26T21:21:13.206Z,18.30
2019-05-26T21:23:42.845Z,18.20
2019-05-26T21:26:12.537Z,18.20
2019-05-26T21:28:42.504Z,18.20
2019-05-26T21:31:12.415Z,18.10
2019-05-26T21:33:42.327Z,18.10
2019-05-26T21:36:12.154Z,18.00
2019-05-26T21:38:41.786Z,17.90
2019-05-26T21:41:11.782Z,17.90
2019-05-26T21:43:41.371Z,17.90
2019-05-26T21:46:11.093Z,18.00
2019-05-26T21:48:41.149Z,18.10
2019-05-26T21:51:11.040Z,18.10
2019-05-26T21:53:40.683Z,18.20
2019-05-26T21:56:10.331Z,18.10
2019-05-26T21:58:40.034Z,18.10
2019-05-26T22:01:09.723Z,18.00
2019-05-26T22:03:39.451Z,17.90
2019-05-26T22:06:09.207Z,17.90
2019-05-26T22:08:39.142Z,17.90
2019-05-26T22:11:10.018Z,17.90
2019-05-26T22:13:39.737Z,17.90
2019-05-26T22:16:09.391Z,17.90
2019-05-26T22:18:39.185Z,17.90
2019-05-26T22:21:08.891Z,17.90
2019-05-26T22:23:38.937Z,17.80
2019-05-26T22:26:08.616Z,17.60
2019-05-26T22:28:38.941Z,17.40
2019-05-26T22:31:08.741Z,17.20
2019-05-26T22:33:38.781Z,17.10
2019-05-26T22:36:08.361Z,16.90
2019-05-26T22:38:38.392Z,16.80
2019-05-26T22:41:08.075Z,16.80
2019-05-26T22:43:37.947Z,16.80
2019-05-26T22:46:07.471Z,16.80
2019-05-26T22:48:37.203Z,16.70
2019-05-26T22:51:07.091Z,16.60
2019-05-26T22:53:36.975Z,16.40
2019-05-26T22:56:06.650Z,16.20
2019-05-26T22:58:36.294Z,16.10
2019-05-26T23:01:06.003Z,16.00
2019-05-26T23:03:36.126Z,16.00
2019-05-26T23:06:06.928Z,16.00
2019-05-26T23:08:36.529Z,16.00
2019-05-26T23:11:06.497Z,15.90
2019-05-26T23:13:36.049Z,15.90
2019-05-26T23:16:06.109Z,15.80
2019-05-26T23:18:35.777Z,15.80
2019-05-26T23:21:05.767Z,15.70
2019-05-26T23:23:35.402Z,15.70
2019-05-26T23:26:05.154Z,15.70
2019-05-26T23:28:35.284Z,15.70
2019-05-26T23:31:04.981Z,16.00
2019-05-26T23:33:34.689Z,15.90
2019-05-26T23:36:04.252Z,16.00
2019-05-26T23:38:33.858Z,16.10
2019-05-26T23:43:32.634Z,16.10
2019-05-26T23:46:02.496Z,16.10
2019-05-26T23:48:32.020Z,16.00
2019-05-26T23:51:01.469Z,15.80
2019-05-26T23:56:01.326Z,15.30
2019-05-26T23:58:30.973Z,15.40
